sensor_id;sensor_type;location;lat;lon;timestamp;temperature;humidity
41628;DHT22;27321;50.816;6.054;2022-08-19T00:00:52;21.40;68.40
41628;DHT22;27321;50.816;6.054;2022-08-19T00:03:54;21.40;68.60
41628;DHT22;27321;50.816;6.054;2022-08-19T00:06:55;21.30;68.80
41628;DHT22;27321;50.816;6.054;2022-08-19T00:09:56;21.30;68.80
41628;DHT22;27321;50.816;6.054;2022-08-19T00:12:57;21.30;68.80
41628;DHT22;27321;50.816;6.054;2022-08-19T00:15:58;21.30;68.90
41628;DHT22;27321;50.816;6.054;2022-08-19T00:19:00;21.30;69.10
41628;DHT22;27321;50.816;6.054;2022-08-19T00:22:01;21.30;69.10
41628;DHT22;27321;50.816;6.054;2022-08-19T00:25:04;21.30;69.00
41628;DHT22;27321;50.816;6.054;2022-08-19T00:28:06;21.30;69.10
41628;DHT22;27321;50.816;6.054;2022-08-19T00:31:08;21.30;69.00
41628;DHT22;27321;50.816;6.054;2022-08-19T00:34:10;21.30;68.90
41628;DHT22;27321;50.816;6.054;2022-08-19T00:37:12;21.20;68.90
41628;DHT22;27321;50.816;6.054;2022-08-19T00:40:14;21.20;68.90
41628;DHT22;27321;50.816;6.054;2022-08-19T00:43:19;21.20;69.00
41628;DHT22;27321;50.816;6.054;2022-08-19T00:46:23;21.30;69.00
41628;DHT22;27321;50.816;6.054;2022-08-19T00:52:33;21.20;69.10
41628;DHT22;27321;50.816;6.054;2022-08-19T00:55:38;21.10;69.30
41628;DHT22;27321;50.816;6.054;2022-08-19T00:58:40;21.10;69.50
41628;DHT22;27321;50.816;6.054;2022-08-19T01:01:43;21.10;69.60
41628;DHT22;27321;50.816;6.054;2022-08-19T01:04:45;21.10;69.40
41628;DHT22;27321;50.816;6.054;2022-08-19T01:07:47;21.00;69.20
41628;DHT22;27321;50.816;6.054;2022-08-19T01:10:55;20.90;69.60
41628;DHT22;27321;50.816;6.054;2022-08-19T01:13:58;20.90;69.60
41628;DHT22;27321;50.816;6.054;2022-08-19T01:17:00;20.90;69.70
41628;DHT22;27321;50.816;6.054;2022-08-19T01:20:02;20.90;69.60
41628;DHT22;27321;50.816;6.054;2022-08-19T01:23:04;20.90;69.60
41628;DHT22;27321;50.816;6.054;2022-08-19T01:26:05;20.90;69.70
41628;DHT22;27321;50.816;6.054;2022-08-19T01:29:07;20.80;69.70
41628;DHT22;27321;50.816;6.054;2022-08-19T01:32:13;20.80;69.70
41628;DHT22;27321;50.816;6.054;2022-08-19T01:35:16;20.80;69.80
41628;DHT22;27321;50.816;6.054;2022-08-19T01:38:24;20.80;69.80
41628;DHT22;27321;50.816;6.054;2022-08-19T01:41:26;20.80;69.80
41628;DHT22;27321;50.816;6.054;2022-08-19T01:44:27;20.80;69.70
41628;DHT22;27321;50.816;6.054;2022-08-19T01:47:28;20.80;69.70
41628;DHT22;27321;50.816;6.054;2022-08-19T01:50:31;20.80;69.70
41628;DHT22;27321;50.816;6.054;2022-08-19T01:53:33;20.70;69.70
41628;DHT22;27321;50.816;6.054;2022-08-19T01:56:36;20.70;69.90
41628;DHT22;27321;50.816;6.054;2022-08-19T01:59:37;20.60;70.00
41628;DHT22;27321;50.816;6.054;2022-08-19T02:02:38;20.60;70.00
41628;DHT22;27321;50.816;6.054;2022-08-19T02:05:40;20.60;70.00
41628;DHT22;27321;50.816;6.054;2022-08-19T02:08:42;20.60;70.00
41628;DHT22;27321;50.816;6.054;2022-08-19T02:11:46;20.60;69.90
41628;DHT22;27321;50.816;6.054;2022-08-19T02:14:47;20.50;69.90
41628;DHT22;27321;50.816;6.054;2022-08-19T02:17:48;20.50;69.90
41628;DHT22;27321;50.816;6.054;2022-08-19T02:20:50;20.50;69.90
41628;DHT22;27321;50.816;6.054;2022-08-19T02:23:51;20.40;69.90
41628;DHT22;27321;50.816;6.054;2022-08-19T02:26:52;20.40;70.10
41628;DHT22;27321;50.816;6.054;2022-08-19T02:29:53;20.30;70.40
41628;DHT22;27321;50.816;6.054;2022-08-19T02:32:54;20.30;70.30
41628;DHT22;27321;50.816;6.054;2022-08-19T02:35:55;20.30;70.30
41628;DHT22;27321;50.816;6.054;2022-08-19T02:38:56;20.30;70.20
41628;DHT22;27321;50.816;6.054;2022-08-19T02:41:57;20.30;70.10
41628;DHT22;27321;50.816;6.054;2022-08-19T02:45:00;20.30;70.00
41628;DHT22;27321;50.816;6.054;2022-08-19T02:48:03;20.20;70.10
41628;DHT22;27321;50.816;6.054;2022-08-19T02:51:05;20.30;70.00
41628;DHT22;27321;50.816;6.054;2022-08-19T02:54:08;20.20;69.90
41628;DHT22;27321;50.816;6.054;2022-08-19T02:57:10;20.20;70.10
41628;DHT22;27321;50.816;6.054;2022-08-19T03:00:11;20.20;70.10
41628;DHT22;27321;50.816;6.054;2022-08-19T03:03:13;20.20;70.20
41628;DHT22;27321;50.816;6.054;2022-08-19T03:06:15;20.20;70.20
41628;DHT22;27321;50.816;6.054;2022-08-19T03:09:18;20.10;70.30
41628;DHT22;27321;50.816;6.054;2022-08-19T03:12:20;20.10;70.20
41628;DHT22;27321;50.816;6.054;2022-08-19T03:15:21;20.10;70.50
41628;DHT22;27321;50.816;6.054;2022-08-19T03:18:22;20.10;70.90
41628;DHT22;27321;50.816;6.054;2022-08-19T03:21:24;20.00;71.30
41628;DHT22;27321;50.816;6.054;2022-08-19T03:24:26;20.00;71.80
41628;DHT22;27321;50.816;6.054;2022-08-19T03:27:27;19.90;72.70
41628;DHT22;27321;50.816;6.054;2022-08-19T03:30:29;19.90;73.10
41628;DHT22;27321;50.816;6.054;2022-08-19T03:33:31;19.90;73.40
41628;DHT22;27321;50.816;6.054;2022-08-19T03:36:33;20.00;73.50
41628;DHT22;27321;50.816;6.054;2022-08-19T03:39:36;20.00;73.60
41628;DHT22;27321;50.816;6.054;2022-08-19T03:42:39;20.00;73.60
41628;DHT22;27321;50.816;6.054;2022-08-19T03:45:42;20.00;73.60
41628;DHT22;27321;50.816;6.054;2022-08-19T03:48:44;20.00;74.00
41628;DHT22;27321;50.816;6.054;2022-08-19T03:51:46;20.00;74.00
41628;DHT22;27321;50.816;6.054;2022-08-19T03:54:48;20.00;74.10
41628;DHT22;27321;50.816;6.054;2022-08-19T03:57:49;20.00;74.10
41628;DHT22;27321;50.816;6.054;2022-08-19T04:00:50;20.00;74.30
41628;DHT22;27321;50.816;6.054;2022-08-19T04:03:53;20.00;74.30
41628;DHT22;27321;50.816;6.054;2022-08-19T04:06:55;20.00;74.40
41628;DHT22;27321;50.816;6.054;2022-08-19T04:09:56;20.00;74.30
41628;DHT22;27321;50.816;6.054;2022-08-19T04:12:57;20.00;74.40
41628;DHT22;27321;50.816;6.054;2022-08-19T04:15:58;19.90;74.40
41628;DHT22;27321;50.816;6.054;2022-08-19T04:19:01;19.80;74.50
41628;DHT22;27321;50.816;6.054;2022-08-19T04:22:04;19.80;74.90
41628;DHT22;27321;50.816;6.054;2022-08-19T04:25:06;19.80;74.90
41628;DHT22;27321;50.816;6.054;2022-08-19T04:28:08;19.70;75.20
41628;DHT22;27321;50.816;6.054;2022-08-19T04:31:15;19.60;75.30
41628;DHT22;27321;50.816;6.054;2022-08-19T04:34:28;19.60;75.30
41628;DHT22;27321;50.816;6.054;2022-08-19T04:37:30;19.60;75.30
41628;DHT22;27321;50.816;6.054;2022-08-19T04:40:40;19.60;75.30
41628;DHT22;27321;50.816;6.054;2022-08-19T04:44:21;19.60;75.40
41628;DHT22;27321;50.816;6.054;2022-08-19T04:47:22;19.60;75.50
41628;DHT22;27321;50.816;6.054;2022-08-19T04:50:23;19.60;75.60
41628;DHT22;27321;50.816;6.054;2022-08-19T04:53:32;19.60;75.60
41628;DHT22;27321;50.816;6.054;2022-08-19T04:56:35;19.70;75.70
41628;DHT22;27321;50.816;6.054;2022-08-19T04:59:38;19.70;75.60
41628;DHT22;27321;50.816;6.054;2022-08-19T05:02:40;19.70;75.90
41628;DHT22;27321;50.816;6.054;2022-08-19T05:05:45;19.70;75.80
41628;DHT22;27321;50.816;6.054;2022-08-19T05:08:49;19.70;75.90
41628;DHT22;27321;50.816;6.054;2022-08-19T05:11:51;19.70;76.00
41628;DHT22;27321;50.816;6.054;2022-08-19T05:14:53;19.70;75.90
41628;DHT22;27321;50.816;6.054;2022-08-19T05:17:56;19.70;76.00
41628;DHT22;27321;50.816;6.054;2022-08-19T05:21:18;19.70;76.00
41628;DHT22;27321;50.816;6.054;2022-08-19T05:24:38;19.80;76.00
41628;DHT22;27321;50.816;6.054;2022-08-19T05:27:40;19.80;75.90
41628;DHT22;27321;50.816;6.054;2022-08-19T05:30:42;19.80;76.00
41628;DHT22;27321;50.816;6.054;2022-08-19T05:33:46;19.80;75.80
41628;DHT22;27321;50.816;6.054;2022-08-19T05:36:49;19.90;75.70
41628;DHT22;27321;50.816;6.054;2022-08-19T05:39:52;19.90;75.70
41628;DHT22;27321;50.816;6.054;2022-08-19T05:42:54;19.90;75.50
41628;DHT22;27321;50.816;6.054;2022-08-19T05:45:56;20.00;75.30
41628;DHT22;27321;50.816;6.054;2022-08-19T05:48:58;20.00;75.30
41628;DHT22;27321;50.816;6.054;2022-08-19T05:52:05;20.10;75.20
41628;DHT22;27321;50.816;6.054;2022-08-19T05:55:08;20.10;75.00
41628;DHT22;27321;50.816;6.054;2022-08-19T05:58:10;20.10;74.90
41628;DHT22;27321;50.816;6.054;2022-08-19T06:01:15;20.10;74.80
41628;DHT22;27321;50.816;6.054;2022-08-19T06:04:19;20.10;74.50
41628;DHT22;27321;50.816;6.054;2022-08-19T06:07:21;20.10;74.50
41628;DHT22;27321;50.816;6.054;2022-08-19T06:10:22;20.10;74.40
41628;DHT22;27321;50.816;6.054;2022-08-19T06:13:24;20.10;74.30
41628;DHT22;27321;50.816;6.054;2022-08-19T06:16:26;20.10;74.20
41628;DHT22;27321;50.816;6.054;2022-08-19T06:19:30;20.10;74.10
41628;DHT22;27321;50.816;6.054;2022-08-19T06:22:31;20.10;74.10
41628;DHT22;27321;50.816;6.054;2022-08-19T06:25:41;20.20;74.00
41628;DHT22;27321;50.816;6.054;2022-08-19T06:28:43;20.20;73.70
41628;DHT22;27321;50.816;6.054;2022-08-19T06:31:58;20.30;73.80
41628;DHT22;27321;50.816;6.054;2022-08-19T06:35:00;20.30;73.70
41628;DHT22;27321;50.816;6.054;2022-08-19T06:38:01;20.40;73.40
41628;DHT22;27321;50.816;6.054;2022-08-19T06:41:05;20.50;73.00
41628;DHT22;27321;50.816;6.054;2022-08-19T06:44:09;20.50;72.60
41628;DHT22;27321;50.816;6.054;2022-08-19T06:47:13;20.40;72.40
41628;DHT22;27321;50.816;6.054;2022-08-19T06:50:17;20.50;72.50
41628;DHT22;27321;50.816;6.054;2022-08-19T06:53:21;20.50;72.40
41628;DHT22;27321;50.816;6.054;2022-08-19T06:56:24;20.60;72.10
41628;DHT22;27321;50.816;6.054;2022-08-19T06:59:32;20.60;72.40
41628;DHT22;27321;50.816;6.054;2022-08-19T07:02:33;20.80;72.30
41628;DHT22;27321;50.816;6.054;2022-08-19T07:05:41;20.80;72.30
41628;DHT22;27321;50.816;6.054;2022-08-19T07:08:44;20.80;72.20
41628;DHT22;27321;50.816;6.054;2022-08-19T07:11:50;20.80;72.30
41628;DHT22;27321;50.816;6.054;2022-08-19T07:14:55;20.90;72.30
41628;DHT22;27321;50.816;6.054;2022-08-19T07:17:57;21.00;72.00
41628;DHT22;27321;50.816;6.054;2022-08-19T07:21:22;21.00;71.80
41628;DHT22;27321;50.816;6.054;2022-08-19T07:24:29;21.00;72.20
41628;DHT22;27321;50.816;6.054;2022-08-19T07:27:31;21.10;71.70
41628;DHT22;27321;50.816;6.054;2022-08-19T07:30:32;21.10;71.60
41628;DHT22;27321;50.816;6.054;2022-08-19T07:33:34;21.10;71.50
41628;DHT22;27321;50.816;6.054;2022-08-19T07:36:38;21.10;71.50
41628;DHT22;27321;50.816;6.054;2022-08-19T07:39:41;21.20;71.50
41628;DHT22;27321;50.816;6.054;2022-08-19T07:42:42;21.20;71.00
41628;DHT22;27321;50.816;6.054;2022-08-19T07:45:44;21.10;70.50
41628;DHT22;27321;50.816;6.054;2022-08-19T07:48:47;21.10;70.70
41628;DHT22;27321;50.816;6.054;2022-08-19T07:54:54;21.10;70.40
41628;DHT22;27321;50.816;6.054;2022-08-19T07:57:56;21.20;70.70
41628;DHT22;27321;50.816;6.054;2022-08-19T08:00:58;21.10;70.60
41628;DHT22;27321;50.816;6.054;2022-08-19T08:03:59;21.30;70.00
41628;DHT22;27321;50.816;6.054;2022-08-19T08:07:19;21.30;70.20
41628;DHT22;27321;50.816;6.054;2022-08-19T08:10:39;21.30;69.80
41628;DHT22;27321;50.816;6.054;2022-08-19T08:13:41;21.30;69.70
41628;DHT22;27321;50.816;6.054;2022-08-19T08:16:42;21.40;69.90
41628;DHT22;27321;50.816;6.054;2022-08-19T08:19:45;21.50;69.70
41628;DHT22;27321;50.816;6.054;2022-08-19T08:22:48;21.50;69.40
41628;DHT22;27321;50.816;6.054;2022-08-19T08:26:07;21.50;68.90
41628;DHT22;27321;50.816;6.054;2022-08-19T08:29:08;21.40;68.80
41628;DHT22;27321;50.816;6.054;2022-08-19T08:32:13;21.30;69.30
41628;DHT22;27321;50.816;6.054;2022-08-19T08:35:18;21.30;69.40
41628;DHT22;27321;50.816;6.054;2022-08-19T08:38:21;21.30;69.40
41628;DHT22;27321;50.816;6.054;2022-08-19T08:41:34;21.30;68.40
41628;DHT22;27321;50.816;6.054;2022-08-19T08:45:00;21.30;68.90
41628;DHT22;27321;50.816;6.054;2022-08-19T08:48:18;21.30;68.50
41628;DHT22;27321;50.816;6.054;2022-08-19T08:51:32;21.40;68.00
41628;DHT22;27321;50.816;6.054;2022-08-19T08:54:44;21.50;68.40
41628;DHT22;27321;50.816;6.054;2022-08-19T08:58:01;21.60;68.20
41628;DHT22;27321;50.816;6.054;2022-08-19T09:01:04;21.60;68.40
41628;DHT22;27321;50.816;6.054;2022-08-19T09:04:07;21.70;68.50
41628;DHT22;27321;50.816;6.054;2022-08-19T09:07:26;21.80;68.60
41628;DHT22;27321;50.816;6.054;2022-08-19T09:10:43;21.90;68.40
41628;DHT22;27321;50.816;6.054;2022-08-19T09:17:10;22.00;68.10
41628;DHT22;27321;50.816;6.054;2022-08-19T09:20:21;22.10;68.20
41628;DHT22;27321;50.816;6.054;2022-08-19T09:23:23;22.10;68.00
41628;DHT22;27321;50.816;6.054;2022-08-19T09:26:25;22.10;67.80
41628;DHT22;27321;50.816;6.054;2022-08-19T09:29:26;22.10;67.90
41628;DHT22;27321;50.816;6.054;2022-08-19T09:32:31;22.20;67.80
41628;DHT22;27321;50.816;6.054;2022-08-19T09:35:33;22.30;67.90
41628;DHT22;27321;50.816;6.054;2022-08-19T09:38:37;22.30;67.60
41628;DHT22;27321;50.816;6.054;2022-08-19T09:41:41;22.30;67.40
41628;DHT22;27321;50.816;6.054;2022-08-19T09:44:42;22.50;67.40
41628;DHT22;27321;50.816;6.054;2022-08-19T09:47:43;22.60;66.80
41628;DHT22;27321;50.816;6.054;2022-08-19T09:50:44;22.80;65.70
41628;DHT22;27321;50.816;6.054;2022-08-19T09:53:46;22.80;65.10
41628;DHT22;27321;50.816;6.054;2022-08-19T09:56:51;22.90;64.80
41628;DHT22;27321;50.816;6.054;2022-08-19T09:59:53;23.00;65.10
41628;DHT22;27321;50.816;6.054;2022-08-19T10:02:54;23.00;64.10
41628;DHT22;27321;50.816;6.054;2022-08-19T10:05:56;23.00;63.50
41628;DHT22;27321;50.816;6.054;2022-08-19T10:08:58;23.00;63.80
41628;DHT22;27321;50.816;6.054;2022-08-19T10:12:00;23.00;64.10
41628;DHT22;27321;50.816;6.054;2022-08-19T10:15:04;23.00;64.50
41628;DHT22;27321;50.816;6.054;2022-08-19T10:18:07;23.00;64.10
41628;DHT22;27321;50.816;6.054;2022-08-19T10:21:13;23.00;64.20
41628;DHT22;27321;50.816;6.054;2022-08-19T10:24:15;23.00;64.20
41628;DHT22;27321;50.816;6.054;2022-08-19T10:27:16;23.10;62.80
41628;DHT22;27321;50.816;6.054;2022-08-19T10:30:17;23.10;63.00
41628;DHT22;27321;50.816;6.054;2022-08-19T10:33:19;23.10;62.80
41628;DHT22;27321;50.816;6.054;2022-08-19T10:36:24;23.20;62.60
41628;DHT22;27321;50.816;6.054;2022-08-19T10:39:40;23.30;62.50
41628;DHT22;27321;50.816;6.054;2022-08-19T10:42:44;23.40;61.50
41628;DHT22;27321;50.816;6.054;2022-08-19T10:46:01;23.40;60.80
41628;DHT22;27321;50.816;6.054;2022-08-19T10:49:48;23.50;60.90
41628;DHT22;27321;50.816;6.054;2022-08-19T10:53:08;23.60;60.90
41628;DHT22;27321;50.816;6.054;2022-08-19T10:56:09;23.60;61.00
41628;DHT22;27321;50.816;6.054;2022-08-19T10:59:29;23.70;60.80
41628;DHT22;27321;50.816;6.054;2022-08-19T11:02:30;23.70;60.30
41628;DHT22;27321;50.816;6.054;2022-08-19T11:05:33;23.80;60.80
41628;DHT22;27321;50.816;6.054;2022-08-19T11:08:35;23.90;60.30
41628;DHT22;27321;50.816;6.054;2022-08-19T11:11:38;24.10;59.70
41628;DHT22;27321;50.816;6.054;2022-08-19T11:14:43;24.10;59.90
41628;DHT22;27321;50.816;6.054;2022-08-19T11:17:44;24.30;59.70
41628;DHT22;27321;50.816;6.054;2022-08-19T11:20:45;24.30;59.80
41628;DHT22;27321;50.816;6.054;2022-08-19T11:23:47;24.20;59.80
41628;DHT22;27321;50.816;6.054;2022-08-19T11:27:01;24.10;59.70
41628;DHT22;27321;50.816;6.054;2022-08-19T11:30:07;24.00;60.60
41628;DHT22;27321;50.816;6.054;2022-08-19T11:33:08;23.90;59.60
41628;DHT22;27321;50.816;6.054;2022-08-19T11:36:12;23.90;60.50
41628;DHT22;27321;50.816;6.054;2022-08-19T11:39:15;23.90;60.90
41628;DHT22;27321;50.816;6.054;2022-08-19T11:42:17;24.00;61.40
41628;DHT22;27321;50.816;6.054;2022-08-19T11:45:40;24.10;60.00
41628;DHT22;27321;50.816;6.054;2022-08-19T11:48:42;24.20;59.30
41628;DHT22;27321;50.816;6.054;2022-08-19T11:51:46;24.20;58.50
41628;DHT22;27321;50.816;6.054;2022-08-19T11:54:58;24.10;59.10
41628;DHT22;27321;50.816;6.054;2022-08-19T11:58:26;24.10;59.50
41628;DHT22;27321;50.816;6.054;2022-08-19T12:01:39;24.10;58.80
41628;DHT22;27321;50.816;6.054;2022-08-19T12:04:43;24.20;57.90
41628;DHT22;27321;50.816;6.054;2022-08-19T12:07:47;24.30;58.00
41628;DHT22;27321;50.816;6.054;2022-08-19T12:10:48;24.30;58.00
41628;DHT22;27321;50.816;6.054;2022-08-19T12:13:49;24.40;57.20
41628;DHT22;27321;50.816;6.054;2022-08-19T12:16:50;24.30;58.10
41628;DHT22;27321;50.816;6.054;2022-08-19T12:19:52;24.30;58.20
41628;DHT22;27321;50.816;6.054;2022-08-19T12:22:55;24.30;57.40
41628;DHT22;27321;50.816;6.054;2022-08-19T12:25:56;24.30;56.50
41628;DHT22;27321;50.816;6.054;2022-08-19T12:28:58;24.30;55.40
41628;DHT22;27321;50.816;6.054;2022-08-19T12:32:00;24.20;55.30
41628;DHT22;27321;50.816;6.054;2022-08-19T12:35:03;24.20;54.20
41628;DHT22;27321;50.816;6.054;2022-08-19T12:38:04;24.30;55.70
41628;DHT22;27321;50.816;6.054;2022-08-19T12:41:09;24.40;54.60
41628;DHT22;27321;50.816;6.054;2022-08-19T12:44:12;24.40;55.90
41628;DHT22;27321;50.816;6.054;2022-08-19T12:47:16;24.50;55.60
41628;DHT22;27321;50.816;6.054;2022-08-19T12:50:18;24.60;55.40
41628;DHT22;27321;50.816;6.054;2022-08-19T12:53:22;24.60;54.60
41628;DHT22;27321;50.816;6.054;2022-08-19T12:56:24;24.60;55.40
41628;DHT22;27321;50.816;6.054;2022-08-19T12:59:27;24.60;55.50
41628;DHT22;27321;50.816;6.054;2022-08-19T13:03:05;24.70;54.80
41628;DHT22;27321;50.816;6.054;2022-08-19T13:06:14;24.80;54.40
41628;DHT22;27321;50.816;6.054;2022-08-19T13:09:17;24.80;55.00
41628;DHT22;27321;50.816;6.054;2022-08-19T13:12:19;24.90;55.50
41628;DHT22;27321;50.816;6.054;2022-08-19T13:15:22;24.90;54.40
41628;DHT22;27321;50.816;6.054;2022-08-19T13:18:24;25.00;54.60
41628;DHT22;27321;50.816;6.054;2022-08-19T13:21:27;25.00;55.20
41628;DHT22;27321;50.816;6.054;2022-08-19T13:25:05;24.80;54.80
41628;DHT22;27321;50.816;6.054;2022-08-19T13:28:10;24.80;55.30
41628;DHT22;27321;50.816;6.054;2022-08-19T13:31:15;24.90;56.30
41628;DHT22;27321;50.816;6.054;2022-08-19T13:34:36;25.00;55.60
41628;DHT22;27321;50.816;6.054;2022-08-19T13:37:37;25.10;56.10
41628;DHT22;27321;50.816;6.054;2022-08-19T13:40:45;25.40;56.20
41628;DHT22;27321;50.816;6.054;2022-08-19T13:43:47;25.60;55.00
41628;DHT22;27321;50.816;6.054;2022-08-19T13:46:49;25.60;54.30
41628;DHT22;27321;50.816;6.054;2022-08-19T13:49:53;25.70;54.00
41628;DHT22;27321;50.816;6.054;2022-08-19T13:52:54;25.70;54.40
41628;DHT22;27321;50.816;6.054;2022-08-19T13:55:56;25.60;54.40
41628;DHT22;27321;50.816;6.054;2022-08-19T13:58:58;25.60;54.90
41628;DHT22;27321;50.816;6.054;2022-08-19T14:01:59;25.60;55.40
41628;DHT22;27321;50.816;6.054;2022-08-19T14:05:00;25.60;55.20
41628;DHT22;27321;50.816;6.054;2022-08-19T14:08:02;25.60;55.20
41628;DHT22;27321;50.816;6.054;2022-08-19T14:11:06;25.50;55.70
41628;DHT22;27321;50.816;6.054;2022-08-19T14:14:07;25.50;55.10
41628;DHT22;27321;50.816;6.054;2022-08-19T14:17:08;25.50;55.70
41628;DHT22;27321;50.816;6.054;2022-08-19T14:20:11;25.50;56.20
41628;DHT22;27321;50.816;6.054;2022-08-19T14:23:12;25.50;56.20
41628;DHT22;27321;50.816;6.054;2022-08-19T14:26:16;25.50;55.50
41628;DHT22;27321;50.816;6.054;2022-08-19T14:29:18;25.40;56.00
41628;DHT22;27321;50.816;6.054;2022-08-19T14:32:19;25.30;56.70
41628;DHT22;27321;50.816;6.054;2022-08-19T14:35:22;25.30;57.00
41628;DHT22;27321;50.816;6.054;2022-08-19T14:38:23;25.20;57.30
41628;DHT22;27321;50.816;6.054;2022-08-19T14:41:24;25.10;57.70
41628;DHT22;27321;50.816;6.054;2022-08-19T14:44:25;25.10;58.20
41628;DHT22;27321;50.816;6.054;2022-08-19T14:47:26;25.00;58.60
41628;DHT22;27321;50.816;6.054;2022-08-19T14:50:30;25.00;59.20
41628;DHT22;27321;50.816;6.054;2022-08-19T14:53:32;24.90;59.60
41628;DHT22;27321;50.816;6.054;2022-08-19T14:56:37;24.90;60.00
41628;DHT22;27321;50.816;6.054;2022-08-19T14:59:44;25.00;60.00
41628;DHT22;27321;50.816;6.054;2022-08-19T15:02:45;25.10;60.10
41628;DHT22;27321;50.816;6.054;2022-08-19T15:05:46;25.10;59.80
41628;DHT22;27321;50.816;6.054;2022-08-19T15:08:47;25.10;59.50
41628;DHT22;27321;50.816;6.054;2022-08-19T15:11:48;25.10;59.10
41628;DHT22;27321;50.816;6.054;2022-08-19T15:14:50;25.20;59.40
41628;DHT22;27321;50.816;6.054;2022-08-19T15:17:51;25.20;58.80
41628;DHT22;27321;50.816;6.054;2022-08-19T15:20:52;25.20;58.80
41628;DHT22;27321;50.816;6.054;2022-08-19T15:23:56;25.30;59.30
41628;DHT22;27321;50.816;6.054;2022-08-19T15:26:58;25.30;59.40
41628;DHT22;27321;50.816;6.054;2022-08-19T15:30:25;25.30;59.70
41628;DHT22;27321;50.816;6.054;2022-08-19T15:34:03;25.20;60.00
41628;DHT22;27321;50.816;6.054;2022-08-19T15:37:26;25.30;60.40
41628;DHT22;27321;50.816;6.054;2022-08-19T15:40:33;25.30;60.60
41628;DHT22;27321;50.816;6.054;2022-08-19T15:43:40;25.40;60.50
41628;DHT22;27321;50.816;6.054;2022-08-19T15:46:44;25.50;60.70
41628;DHT22;27321;50.816;6.054;2022-08-19T15:49:46;25.60;60.30
41628;DHT22;27321;50.816;6.054;2022-08-19T15:52:48;25.70;59.30
41628;DHT22;27321;50.816;6.054;2022-08-19T15:56:03;25.70;59.40
41628;DHT22;27321;50.816;6.054;2022-08-19T15:59:15;25.70;59.40
41628;DHT22;27321;50.816;6.054;2022-08-19T16:02:38;25.70;59.20
41628;DHT22;27321;50.816;6.054;2022-08-19T16:06:57;25.70;58.10
41628;DHT22;27321;50.816;6.054;2022-08-19T16:10:13;25.60;58.50
41628;DHT22;27321;50.816;6.054;2022-08-19T16:13:29;25.60;59.00
41628;DHT22;27321;50.816;6.054;2022-08-19T16:16:53;25.50;59.60
41628;DHT22;27321;50.816;6.054;2022-08-19T16:20:08;25.40;59.70
41628;DHT22;27321;50.816;6.054;2022-08-19T16:23:54;25.30;60.00
41628;DHT22;27321;50.816;6.054;2022-08-19T16:27:05;25.30;60.30
41628;DHT22;27321;50.816;6.054;2022-08-19T16:31:15;25.30;60.30
41628;DHT22;27321;50.816;6.054;2022-08-19T16:50:37;25.00;60.60
41628;DHT22;27321;50.816;6.054;2022-08-19T16:54:08;25.00;60.80
41628;DHT22;27321;50.816;6.054;2022-08-19T16:57:24;25.00;61.00
41628;DHT22;27321;50.816;6.054;2022-08-19T17:05:23;25.00;61.10
41628;DHT22;27321;50.816;6.054;2022-08-19T17:09:31;24.90;61.10
41628;DHT22;27321;50.816;6.054;2022-08-19T17:12:45;24.90;61.20
41628;DHT22;27321;50.816;6.054;2022-08-19T17:15:49;24.90;61.40
41628;DHT22;27321;50.816;6.054;2022-08-19T17:18:55;24.80;61.40
41628;DHT22;27321;50.816;6.054;2022-08-19T17:21:57;24.80;61.40
41628;DHT22;27321;50.816;6.054;2022-08-19T17:25:00;24.70;61.40
41628;DHT22;27321;50.816;6.054;2022-08-19T17:28:11;24.70;61.30
41628;DHT22;27321;50.816;6.054;2022-08-19T17:31:15;24.60;61.30
41628;DHT22;27321;50.816;6.054;2022-08-19T17:34:16;24.60;61.50
41628;DHT22;27321;50.816;6.054;2022-08-19T17:37:18;24.50;61.50
41628;DHT22;27321;50.816;6.054;2022-08-19T17:40:19;24.50;61.60
41628;DHT22;27321;50.816;6.054;2022-08-19T17:43:24;24.50;61.50
41628;DHT22;27321;50.816;6.054;2022-08-19T17:46:25;24.50;61.60
41628;DHT22;27321;50.816;6.054;2022-08-19T17:49:27;24.50;61.70
41628;DHT22;27321;50.816;6.054;2022-08-19T17:52:28;24.30;62.90
41628;DHT22;27321;50.816;6.054;2022-08-19T17:55:30;24.20;62.90
41628;DHT22;27321;50.816;6.054;2022-08-19T17:58:31;24.10;63.50
41628;DHT22;27321;50.816;6.054;2022-08-19T18:01:35;24.00;63.90
41628;DHT22;27321;50.816;6.054;2022-08-19T18:04:39;23.90;64.60
41628;DHT22;27321;50.816;6.054;2022-08-19T18:07:40;23.90;65.10
41628;DHT22;27321;50.816;6.054;2022-08-19T18:10:42;23.90;65.80
41628;DHT22;27321;50.816;6.054;2022-08-19T18:13:43;23.80;66.30
41628;DHT22;27321;50.816;6.054;2022-08-19T18:16:44;23.80;67.00
41628;DHT22;27321;50.816;6.054;2022-08-19T18:19:46;23.70;67.70
41628;DHT22;27321;50.816;6.054;2022-08-19T18:22:48;23.60;68.20
41628;DHT22;27321;50.816;6.054;2022-08-19T18:25:50;23.50;68.60
41628;DHT22;27321;50.816;6.054;2022-08-19T18:28:52;23.50;68.90
41628;DHT22;27321;50.816;6.054;2022-08-19T18:31:53;23.50;69.30
41628;DHT22;27321;50.816;6.054;2022-08-19T18:34:59;23.50;69.40
41628;DHT22;27321;50.816;6.054;2022-08-19T18:38:03;23.50;69.40
41628;DHT22;27321;50.816;6.054;2022-08-19T18:41:25;23.50;69.30
41628;DHT22;27321;50.816;6.054;2022-08-19T18:44:44;23.40;69.70
41628;DHT22;27321;50.816;6.054;2022-08-19T18:48:04;23.30;70.00
41628;DHT22;27321;50.816;6.054;2022-08-19T18:51:23;23.30;70.10
41628;DHT22;27321;50.816;6.054;2022-08-19T18:54:27;23.30;70.30
41628;DHT22;27321;50.816;6.054;2022-08-19T18:57:29;23.30;70.60
41628;DHT22;27321;50.816;6.054;2022-08-19T19:00:30;23.30;70.60
41628;DHT22;27321;50.816;6.054;2022-08-19T19:03:32;23.30;70.70
41628;DHT22;27321;50.816;6.054;2022-08-19T19:06:34;23.30;70.70
41628;DHT22;27321;50.816;6.054;2022-08-19T19:09:40;23.30;70.70
41628;DHT22;27321;50.816;6.054;2022-08-19T19:12:42;23.30;70.80
41628;DHT22;27321;50.816;6.054;2022-08-19T19:15:44;23.30;70.90
41628;DHT22;27321;50.816;6.054;2022-08-19T19:18:45;23.30;70.80
41628;DHT22;27321;50.816;6.054;2022-08-19T19:21:47;23.30;70.80
41628;DHT22;27321;50.816;6.054;2022-08-19T19:24:49;23.30;70.90
41628;DHT22;27321;50.816;6.054;2022-08-19T19:27:50;23.30;70.90
41628;DHT22;27321;50.816;6.054;2022-08-19T19:30:55;23.20;70.90
41628;DHT22;27321;50.816;6.054;2022-08-19T19:33:58;23.20;71.10
41628;DHT22;27321;50.816;6.054;2022-08-19T19:37:01;23.20;71.20
41628;DHT22;27321;50.816;6.054;2022-08-19T19:40:02;23.20;71.20
41628;DHT22;27321;50.816;6.054;2022-08-19T19:43:04;23.20;71.30
41628;DHT22;27321;50.816;6.054;2022-08-19T19:46:06;23.20;71.40
41628;DHT22;27321;50.816;6.054;2022-08-19T19:49:07;23.20;71.50
41628;DHT22;27321;50.816;6.054;2022-08-19T19:52:09;23.10;71.60
41628;DHT22;27321;50.816;6.054;2022-08-19T19:55:10;23.20;71.60
41628;DHT22;27321;50.816;6.054;2022-08-19T19:58:27;23.10;71.80
41628;DHT22;27321;50.816;6.054;2022-08-19T20:01:29;23.10;71.90